createdAt,value
2018-12-20T00:03:01.402Z,4.4
2018-12-20T00:08:01.255Z,4.5
2018-12-20T00:23:01.461Z,4.6
2018-12-20T00:28:01.289Z,4.5
2018-12-20T00:43:01.497Z,4.5
2018-12-20T00:58:01.477Z,4.5
2018-12-20T01:03:01.301Z,4.6
2018-12-20T01:18:01.350Z,4.7
2018-12-20T01:33:01.371Z,4.7
2018-12-20T01:43:01.363Z,4.6
2018-12-20T01:58:01.420Z,4.5
2018-12-20T02:03:01.626Z,4.6
2018-12-20T02:18:01.341Z,4.6
2018-12-20T02:33:01.539Z,4.6
2018-12-20T02:38:01.242Z,4.5
2018-12-20T02:53:01.407Z,4.4
2018-12-20T03:03:01.422Z,4.3
2018-12-20T03:13:01.641Z,4.2
2018-12-20T03:23:01.348Z,4.1
2018-12-20T03:28:01.401Z,4.0
2018-12-20T03:38:01.322Z,3.9
2018-12-20T03:48:01.443Z,3.8
2018-12-20T04:03:01.602Z,3.8
2018-12-20T04:08:01.483Z,3.9
2018-12-20T04:18:01.430Z,4.0
2018-12-20T04:33:01.417Z,3.9
2018-12-20T04:43:01.710Z,3.8
2018-12-20T04:48:01.328Z,3.7
2018-12-20T04:58:01.465Z,3.6
2018-12-20T05:13:01.435Z,3.6
2018-12-20T05:28:01.333Z,3.7
2018-12-20T05:33:01.589Z,3.8
2018-12-20T05:38:01.858Z,3.9
2018-12-20T05:48:01.578Z,4.0
2018-12-20T05:58:01.711Z,4.1
2018-12-20T06:13:01.580Z,4.2
2018-12-20T06:28:01.333Z,4.3
2018-12-20T06:43:01.083Z,4.2
2018-12-20T06:58:01.246Z,4.2
2018-12-20T07:08:01.242Z,4.1
2018-12-20T07:23:01.270Z,4.1
2018-12-20T07:38:01.251Z,4.1
2018-12-20T07:53:01.290Z,4.1
2018-12-20T07:58:06.297Z,4.2
2018-12-20T08:13:06.260Z,4.3
2018-12-20T08:23:01.253Z,4.4
2018-12-20T08:33:01.217Z,4.5
2018-12-20T08:48:01.255Z,4.6
2018-12-20T09:03:01.257Z,4.6
2018-12-20T09:18:01.258Z,4.7
2018-12-20T09:33:01.265Z,4.7
2018-12-20T09:38:01.390Z,4.8
2018-12-20T09:48:01.349Z,4.9
2018-12-20T09:58:01.265Z,5.0
2018-12-20T10:03:01.386Z,5.1
2018-12-20T10:13:01.409Z,5.2
2018-12-20T10:18:01.487Z,5.3
2018-12-20T10:33:01.445Z,5.4
2018-12-20T10:48:01.441Z,5.4
2018-12-20T11:03:01.434Z,5.4
2018-12-20T11:08:01.716Z,5.5
2018-12-20T11:23:01.452Z,5.5
2018-12-20T11:33:01.415Z,5.6
2018-12-20T11:48:01.399Z,5.8
2018-12-20T11:58:01.460Z,6.0
2018-12-20T12:03:01.526Z,6.1
2018-12-20T12:08:01.427Z,6.2
2018-12-20T12:23:01.396Z,6.2
2018-12-20T12:28:01.643Z,6.1
2018-12-20T12:43:01.393Z,6.1
2018-12-20T12:58:05.275Z,6.1
2018-12-20T13:13:01.438Z,6.0
2018-12-20T13:28:01.407Z,6.0
2018-12-20T13:43:01.459Z,6.0
2018-12-20T13:58:01.395Z,6.0
2018-12-20T14:13:01.254Z,6.0
2018-12-20T14:23:01.600Z,5.9
2018-12-20T14:38:01.495Z,5.9
2018-12-20T14:53:01.490Z,5.9
2018-12-20T15:08:01.447Z,5.9
2018-12-20T15:23:01.395Z,5.9
2018-12-20T15:28:01.395Z,5.8
2018-12-20T15:33:01.386Z,5.9
2018-12-20T15:48:01.403Z,5.9
2018-12-20T16:03:01.260Z,5.9
2018-12-20T16:18:01.243Z,5.9
2018-12-20T16:33:01.402Z,5.9
2018-12-20T16:43:01.380Z,5.8
2018-12-20T16:58:01.373Z,5.8
2018-12-20T17:13:01.393Z,5.8
2018-12-20T17:18:01.390Z,5.7
2018-12-20T17:33:01.375Z,5.7
2018-12-20T17:48:01.376Z,5.6
2018-12-20T18:03:01.108Z,5.6
2018-12-20T18:13:01.128Z,5.5
2018-12-20T18:28:01.238Z,5.4
2018-12-20T18:43:01.799Z,5.4
2018-12-20T18:58:01.319Z,5.4
2018-12-20T19:08:01.265Z,5.5
2018-12-20T19:23:01.379Z,5.6
2018-12-20T19:38:01.517Z,5.7
2018-12-20T19:53:01.422Z,5.7
2018-12-20T19:58:01.267Z,5.8
2018-12-20T20:13:01.288Z,5.8
2018-12-20T20:23:01.378Z,5.9
2018-12-20T20:38:01.124Z,5.9
2018-12-20T20:53:01.411Z,5.9
2018-12-20T20:58:01.248Z,5.8
2018-12-20T21:13:01.413Z,5.8
2018-12-20T21:28:01.235Z,5.8
2018-12-20T21:43:01.312Z,5.8
2018-12-20T21:58:01.122Z,5.8
2018-12-20T22:08:01.366Z,5.9
2018-12-20T22:23:01.421Z,5.9
2018-12-20T22:38:01.394Z,5.9
2018-12-20T22:54:01.349Z,6.0
2018-12-20T23:09:01.359Z,6.0
2018-12-20T23:25:01.333Z,6.0
2018-12-20T23:30:01.252Z,6.0
2018-12-20T23:45:02.272Z,6.0
